createdAt,value
2023-02-24T01:07:11.402Z,0.52
2023-02-24T01:08:11.275Z,0.52
2023-02-24T01:09:11.260Z,0.51
2023-02-24T01:10:11.259Z,0.52
2023-02-24T01:11:11.253Z,0.52
2023-02-24T01:12:11.329Z,0.52
2023-02-24T01:13:11.267Z,0.51
2023-02-24T01:14:11.271Z,0.52
2023-02-24T01:15:11.265Z,0.52
2023-02-24T01:16:11.307Z,0.53
2023-02-24T01:17:11.270Z,0.52
2023-02-24T01:18:11.276Z,0.51
2023-02-24T01:19:11.274Z,0.52
2023-02-24T01:20:11.275Z,0.52
2023-02-24T01:21:11.277Z,0.54
2023-02-24T01:22:11.276Z,0.52
2023-02-24T01:23:11.288Z,0.53
2023-02-24T01:24:11.307Z,0.52
2023-02-24T01:25:11.372Z,0.52
2023-02-24T01:26:11.303Z,0.52
2023-02-24T01:27:11.379Z,0.52
2023-02-24T01:28:11.312Z,0.52
2023-02-24T01:29:11.334Z,0.51
2023-02-24T01:30:12.262Z,0.52
2023-02-24T01:31:11.412Z,0.51
2023-02-24T01:32:11.524Z,0.52
2023-02-24T01:33:11.382Z,0.51
2023-02-24T01:34:11.368Z,0.52
2023-02-24T01:35:11.354Z,0.51
2023-02-24T01:36:11.372Z,0.51
2023-02-24T01:37:11.371Z,0.50
2023-02-24T01:38:11.385Z,0.51
2023-02-24T01:39:11.399Z,0.52
2023-02-24T01:40:11.414Z,0.51
2023-02-24T01:41:11.403Z,0.52
2023-02-24T01:42:11.423Z,0.52
2023-02-24T01:43:11.434Z,0.52
2023-02-24T01:44:11.441Z,0.51
2023-02-24T01:45:11.445Z,0.51
2023-02-24T01:46:11.544Z,0.52
2023-02-24T01:47:11.469Z,0.52
2023-02-24T01:48:11.464Z,0.51
2023-02-24T01:49:11.506Z,0.52
2023-02-24T01:50:11.536Z,0.52
2023-02-24T01:51:12.269Z,0.52
2023-02-24T01:52:11.474Z,0.52
2023-02-24T01:53:11.487Z,0.51
2023-02-24T01:54:11.496Z,0.51
2023-02-24T01:55:11.502Z,0.50
2023-02-24T01:56:11.507Z,0.52
2023-02-24T01:57:11.517Z,0.52
2023-02-24T01:58:11.587Z,0.51
2023-02-24T01:59:11.538Z,0.51
2023-02-24T02:00:11.535Z,0.51
2023-02-24T02:01:12.304Z,0.51
2023-02-24T02:02:11.669Z,0.51
2023-02-24T02:03:11.572Z,0.52
2023-02-24T02:04:11.602Z,0.51
2023-02-24T02:05:11.618Z,0.51
2023-02-24T02:06:11.599Z,0.51
2023-02-24T02:07:11.705Z,0.52
2023-02-24T02:08:11.614Z,0.51
2023-02-24T02:09:11.793Z,0.51
2023-02-24T02:10:11.647Z,0.51
2023-02-24T02:11:11.646Z,0.51
2023-02-24T02:12:11.721Z,0.51
2023-02-24T02:13:11.662Z,0.50
2023-02-24T05:20:09.139Z,0.52
2023-02-24T05:21:09.113Z,0.54
2023-02-24T05:22:09.089Z,0.53
2023-02-24T05:23:09.074Z,0.53
2023-02-24T05:24:09.066Z,0.54
2023-02-24T05:25:09.124Z,0.54
2023-02-24T05:26:09.077Z,0.53
2023-02-24T05:27:09.007Z,0.54
2023-02-24T05:28:08.969Z,0.55
2023-02-24T05:29:08.950Z,0.51
2023-02-24T05:30:08.933Z,0.54
2023-02-24T05:31:09.033Z,0.52
2023-02-24T05:32:08.976Z,0.52
2023-02-24T05:33:08.878Z,0.50
2023-02-24T05:34:08.854Z,0.54
2023-02-24T05:35:08.848Z,0.51
2023-02-24T05:36:08.870Z,0.53
2023-02-24T05:37:08.805Z,0.53
2023-02-24T05:38:08.773Z,0.52
2023-02-24T05:39:08.758Z,0.53
2023-02-24T05:40:08.759Z,0.52
2023-02-24T05:41:08.729Z,0.51
2023-02-24T05:42:08.711Z,0.53
2023-02-24T05:43:08.706Z,0.55
2023-02-24T05:44:08.782Z,0.53
2023-02-24T05:45:08.658Z,0.52
2023-02-24T05:46:08.642Z,0.51
2023-02-24T05:47:08.631Z,0.52
2023-02-24T05:48:08.609Z,0.55
2023-02-24T05:49:08.608Z,0.50
2023-02-24T05:50:08.576Z,0.53
2023-02-24T05:51:09.350Z,0.53
2023-02-24T05:52:08.541Z,0.53
2023-02-24T05:53:08.520Z,0.52
2023-02-24T05:54:08.513Z,0.53
2023-02-24T05:55:08.524Z,0.51
2023-02-24T05:56:08.460Z,0.54
2023-02-24T05:57:08.467Z,0.50
2023-02-24T05:58:08.436Z,0.54
2023-02-24T05:59:08.430Z,0.53
2023-02-24T06:00:08.406Z,0.53
2023-02-24T06:01:08.402Z,0.53
2023-02-24T06:02:08.450Z,0.52
2023-02-24T06:03:08.579Z,0.52
2023-02-24T06:04:08.365Z,0.53
2023-02-24T06:05:08.327Z,0.54
2023-02-24T06:06:08.315Z,0.53
2023-02-24T06:07:08.292Z,0.53
2023-02-24T06:08:08.366Z,0.53
2023-02-24T06:09:08.326Z,0.53
2023-02-24T06:10:08.249Z,0.54
2023-02-24T06:11:08.243Z,0.50
2023-02-24T06:12:08.260Z,0.52
2023-02-24T06:13:08.240Z,0.54
2023-02-24T06:14:08.253Z,0.54
2023-02-24T06:15:08.324Z,0.52
2023-02-24T06:16:08.338Z,0.54
2023-02-24T06:17:08.154Z,0.52
2023-02-24T06:18:08.368Z,0.52
2023-02-24T06:19:08.123Z,0.51
2023-02-24T06:20:08.115Z,0.51
2023-02-24T06:21:08.094Z,0.53
2023-02-24T06:22:08.079Z,0.52
2023-02-24T06:23:08.066Z,0.53
2023-02-24T06:24:08.027Z,0.53
2023-02-24T06:25:08.099Z,0.57
2023-02-24T06:26:08.002Z,0.56
2023-02-24T06:27:07.972Z,0.57
2023-02-24T06:29:07.958Z,0.60
2023-02-24T06:30:07.939Z,0.62
2023-02-24T06:31:07.844Z,0.70
2023-02-24T06:32:08.074Z,0.69
2023-02-24T06:33:07.850Z,0.75
2023-02-24T06:34:07.987Z,0.75
2023-02-24T06:35:07.865Z,0.75
2023-02-24T06:36:07.872Z,0.76
2023-02-24T06:37:07.893Z,0.82
2023-02-24T06:38:07.912Z,0.84
2023-02-24T06:39:07.931Z,0.88
2023-02-24T06:40:08.804Z,0.89
2023-02-24T06:41:07.935Z,0.94
2023-02-24T06:42:07.941Z,1.04
2023-02-24T06:43:07.942Z,1.05
2023-02-24T06:44:07.946Z,1.05
2023-02-24T06:45:08.092Z,1.07
2023-02-24T06:46:08.083Z,1.11
2023-02-24T06:47:07.955Z,1.15
2023-02-24T06:48:07.944Z,1.20
2023-02-24T06:49:07.916Z,1.21
2023-02-24T06:50:07.900Z,1.31
2023-02-24T06:51:07.887Z,1.32
2023-02-24T06:52:07.863Z,1.40
2023-02-24T06:53:07.921Z,1.43
2023-02-24T06:54:07.829Z,1.49
2023-02-24T06:55:07.788Z,1.53
2023-02-24T07:06:07.533Z,2.24
2023-02-24T07:07:08.319Z,2.32
2023-02-24T07:08:07.463Z,2.32
2023-02-24T07:09:08.340Z,2.33
2023-02-24T07:10:07.286Z,2.36
2023-02-24T07:11:07.237Z,2.42
2023-02-24T07:12:07.274Z,2.47
2023-02-24T07:13:07.142Z,2.56
2023-02-24T07:14:07.111Z,2.69
2023-02-24T07:17:06.966Z,1.55
2023-02-24T07:18:06.945Z,1.32
2023-02-24T07:19:06.873Z,1.50
2023-02-24T07:20:06.817Z,1.69
2023-02-24T07:21:06.775Z,1.77
2023-02-24T07:22:06.827Z,1.79
2023-02-24T07:23:06.699Z,1.76
2023-02-24T07:31:06.836Z,0.84
2023-02-24T07:32:06.913Z,0.72
2023-02-24T07:34:06.667Z,0.58
2023-02-24T07:35:06.628Z,0.55
2023-02-24T07:36:06.598Z,0.52
2023-02-24T07:37:06.606Z,0.49
2023-02-24T07:38:06.580Z,0.46
2023-02-24T07:39:07.389Z,0.50
2023-02-24T07:40:06.466Z,0.52
2023-02-24T07:41:06.412Z,0.51
2023-02-24T07:42:06.383Z,0.52
2023-02-24T07:43:06.355Z,0.56
2023-02-24T07:44:06.300Z,0.60
2023-02-24T07:45:06.289Z,0.65
2023-02-24T07:46:06.301Z,0.64
2023-02-24T07:47:06.169Z,0.71
2023-02-24T07:48:06.138Z,0.70
2023-02-24T07:49:06.076Z,0.67
2023-02-24T07:50:06.047Z,0.70
2023-02-24T07:51:05.994Z,0.73
2023-02-24T07:52:05.993Z,0.76
2023-02-24T08:26:06.917Z,2.00
2023-02-24T09:29:02.434Z,0.51
2023-02-24T10:12:00.923Z,1.01
2023-02-24T10:53:59.641Z,3.20
2023-02-24T10:54:59.601Z,3.24
2023-02-24T10:55:59.545Z,3.32
2023-02-24T10:56:59.438Z,3.39
2023-02-24T10:59:01.519Z,3.72
2023-02-24T10:59:59.309Z,3.86
2023-02-24T11:00:59.331Z,3.93
2023-02-24T11:01:59.317Z,3.93
2023-02-24T11:02:59.301Z,3.97
2023-02-24T11:03:59.280Z,4.13
2023-02-24T11:05:00.154Z,4.27
2023-02-24T11:05:59.267Z,4.56
2023-02-24T11:06:59.263Z,4.64
2023-02-24T11:07:59.275Z,4.59
2023-02-24T11:08:59.271Z,4.57
2023-02-24T11:09:59.272Z,4.46
2023-02-24T11:10:59.311Z,4.41
2023-02-24T11:11:59.282Z,4.41
2023-02-24T11:13:08.998Z,4.46
2023-02-24T11:14:59.150Z,4.48
2023-02-24T11:15:59.152Z,4.48
2023-02-24T11:16:59.092Z,4.47
2023-02-24T11:17:59.085Z,4.54
2023-02-24T11:18:58.924Z,4.49
2023-02-24T11:19:58.915Z,4.43
2023-02-24T11:20:58.856Z,4.41
2023-02-24T11:21:58.762Z,4.38
2023-02-24T11:22:58.730Z,4.35
2023-02-24T11:23:58.698Z,4.36
2023-02-24T11:24:59.268Z,4.28
2023-02-24T11:25:58.497Z,4.31
2023-02-24T11:26:58.437Z,4.24
2023-02-24T11:27:58.387Z,4.27
2023-02-24T11:28:58.357Z,4.28
2023-02-24T11:29:58.284Z,4.23
2023-02-24T11:30:58.269Z,4.12
2023-02-24T11:31:59.131Z,4.11
2023-02-24T11:32:58.209Z,4.13
2023-02-24T11:33:58.065Z,4.11
2023-02-24T11:34:58.011Z,4.10
2023-02-24T11:35:57.951Z,4.02
2023-02-24T11:36:57.984Z,4.05
2023-02-24T11:37:57.988Z,4.05
2023-02-24T11:39:08.380Z,4.01
2023-02-24T11:39:58.748Z,4.02
2023-02-24T11:40:57.669Z,4.03
2023-02-24T11:41:57.609Z,4.03
2023-02-24T11:42:57.560Z,3.95
2023-02-24T11:43:57.510Z,4.01
2023-02-24T11:44:57.531Z,3.95
2023-02-24T11:45:57.414Z,3.87
2023-02-24T11:46:57.437Z,3.92
2023-02-24T11:47:57.367Z,3.86
2023-02-24T11:48:57.269Z,3.85
2023-02-24T11:49:57.218Z,3.83
2023-02-24T11:50:57.162Z,3.85
2023-02-24T11:51:57.118Z,3.74
2023-02-24T11:52:57.057Z,3.84
2023-02-24T11:53:57.031Z,3.75
2023-02-24T11:54:56.982Z,3.79
2023-02-24T11:55:56.914Z,3.78
2023-02-24T11:56:56.908Z,3.73
2023-02-24T11:57:56.810Z,3.73
2023-02-24T11:58:56.784Z,3.71
2023-02-24T11:59:56.718Z,3.63
2023-02-24T12:00:56.670Z,3.68
2023-02-24T12:01:56.622Z,3.67
2023-02-24T12:02:56.588Z,3.59
2023-02-24T12:03:56.592Z,3.60
2023-02-24T12:04:56.454Z,3.63
2023-02-24T12:05:56.487Z,3.57
2023-02-24T12:06:56.424Z,3.58
2023-02-24T12:07:56.308Z,3.56
2023-02-24T12:08:56.251Z,3.56
2023-02-24T12:10:06.935Z,3.57
2023-02-24T12:10:57.139Z,3.57
2023-02-24T12:11:56.500Z,3.57
2023-02-24T12:12:56.035Z,3.54
2023-02-24T12:13:55.985Z,3.50
2023-02-24T12:14:55.951Z,3.46
2023-02-24T12:15:55.960Z,3.55
2023-02-24T12:16:56.021Z,3.46
2023-02-24T12:17:55.862Z,3.47
2023-02-24T12:18:55.876Z,3.47
2023-02-24T12:19:55.698Z,3.43
2023-02-24T12:20:55.649Z,3.44
2023-02-24T12:21:55.603Z,3.38
2023-02-24T12:22:56.523Z,3.42
2023-02-24T12:23:55.551Z,3.34
2023-02-24T12:24:55.444Z,3.34
2023-02-24T12:25:55.382Z,3.33
2023-02-24T12:26:55.334Z,3.30
2023-02-24T12:27:55.280Z,3.33
2023-02-24T12:29:56.059Z,3.32
2023-02-24T16:33:57.132Z,1.79
2023-02-24T17:18:52.706Z,1.77
2023-02-24T17:19:52.718Z,1.65
2023-02-24T17:20:52.646Z,1.69
2023-02-24T17:21:52.593Z,1.64
2023-02-24T17:22:52.579Z,1.67
2023-02-24T17:23:52.533Z,1.71
2023-02-24T17:24:52.497Z,1.69
2023-02-24T17:25:52.479Z,1.74
2023-02-24T17:26:52.505Z,1.67
2023-02-24T17:27:52.389Z,1.66
2023-02-24T17:28:52.360Z,1.64
2023-02-24T17:29:52.325Z,1.68
2023-02-24T17:30:52.364Z,1.65
2023-02-24T17:31:52.468Z,1.66
2023-02-24T17:32:52.346Z,1.67
2023-02-24T17:33:52.182Z,1.68
2023-02-24T17:34:52.172Z,1.62
2023-02-24T17:35:52.121Z,1.65
2023-02-24T17:36:52.126Z,1.61
2023-02-24T17:37:52.037Z,1.60
2023-02-24T17:38:52.006Z,1.63
2023-02-24T17:39:52.608Z,1.57
2023-02-24T17:40:51.934Z,1.59
2023-02-24T17:41:51.900Z,1.59
2023-02-24T17:42:51.854Z,1.63
2023-02-24T17:43:51.832Z,1.58
2023-02-24T17:44:51.786Z,1.62
2023-02-24T17:45:51.769Z,1.66
2023-02-24T17:46:51.777Z,1.70
2023-02-24T17:47:51.669Z,1.61
2023-02-24T17:48:51.651Z,1.59
2023-02-24T17:49:51.604Z,1.65
2023-02-24T17:50:51.555Z,1.53
2023-02-24T17:51:52.107Z,1.59
2023-02-24T17:52:51.533Z,1.60
2023-02-24T17:53:51.449Z,1.63
2023-02-24T17:54:51.403Z,1.60
2023-02-24T17:56:02.367Z,1.55
2023-02-24T17:56:52.331Z,1.56
2023-02-24T17:57:51.289Z,1.57
2023-02-24T17:58:51.271Z,1.58
2023-02-24T17:59:51.217Z,1.56
2023-02-24T18:00:51.195Z,1.57
2023-02-24T18:01:51.186Z,1.64
2023-02-24T18:02:51.183Z,1.52
2023-02-24T18:03:51.076Z,1.66
2023-02-24T18:04:51.043Z,1.50
2023-02-24T18:05:51.010Z,1.54
2023-02-24T18:06:50.979Z,1.56
2023-02-24T18:07:50.941Z,1.47
2023-02-24T18:08:50.890Z,1.51
2023-02-24T18:09:50.857Z,1.56
2023-02-24T18:10:50.817Z,1.54
2023-02-24T18:11:50.782Z,1.58
2023-02-24T18:12:50.724Z,1.55
2023-02-24T18:13:50.683Z,1.57
2023-02-24T18:15:02.374Z,1.58
2023-02-24T18:15:51.710Z,1.58
2023-02-24T18:16:51.116Z,1.59
2023-02-24T18:17:50.519Z,1.50
2023-02-24T18:18:50.514Z,1.49
2023-02-24T18:20:50.451Z,1.49
2023-02-24T18:21:50.497Z,1.49
2023-02-24T18:22:50.352Z,1.46
2023-02-24T18:23:50.294Z,1.53
2023-02-24T18:24:50.280Z,1.50
2023-02-24T18:25:50.230Z,1.53
2023-02-24T18:26:50.185Z,1.44
2023-02-24T18:27:50.150Z,1.51
2023-02-24T18:28:50.104Z,1.50
2023-02-24T18:29:50.077Z,1.43
2023-02-24T20:14:49.996Z,1.25
2023-02-24T20:18:50.025Z,1.27
2023-02-24T20:23:50.076Z,1.26
2023-02-24T20:24:50.074Z,1.26
2023-02-24T20:25:50.158Z,1.28
2023-02-24T20:26:50.160Z,1.26
2023-02-24T20:27:50.091Z,1.26
2023-02-24T20:28:50.100Z,1.26
2023-02-24T20:29:51.749Z,1.27
2023-02-24T20:30:50.107Z,1.30
2023-02-24T20:31:50.209Z,1.25
2023-02-24T20:32:50.067Z,1.27
2023-02-24T20:33:49.953Z,1.27
2023-02-24T20:34:49.943Z,1.22
2023-02-24T20:35:49.883Z,1.26
2023-02-24T20:36:49.853Z,1.24
2023-02-24T20:37:49.821Z,1.24
2023-02-24T20:38:49.834Z,1.25
2023-02-24T20:39:49.734Z,1.24
2023-02-24T20:40:49.706Z,1.27
2023-02-24T20:41:49.664Z,1.24
2023-02-24T20:42:49.624Z,1.26
2023-02-24T20:43:49.607Z,1.25
2023-02-24T20:44:49.548Z,1.23
2023-02-24T20:45:49.590Z,1.27
2023-02-24T20:46:49.484Z,1.24
2023-02-24T20:47:49.438Z,1.24
2023-02-24T20:48:49.416Z,1.23
2023-02-24T20:49:49.416Z,1.23
2023-02-24T20:50:49.340Z,1.25
2023-02-24T20:51:49.344Z,1.28
2023-02-24T20:52:49.264Z,1.23
2023-02-24T20:53:57.281Z,1.25
2023-02-24T20:54:50.200Z,1.25
2023-02-24T20:55:49.169Z,1.25
2023-02-24T20:56:49.138Z,1.25
2023-02-24T20:57:49.109Z,1.25
2023-02-24T20:58:49.077Z,1.26
2023-02-24T21:00:02.558Z,1.25
2023-02-24T21:00:50.081Z,1.25
2023-02-24T21:01:49.062Z,1.25
2023-02-24T21:02:48.952Z,1.25
2023-02-24T21:03:48.916Z,1.25
2023-02-24T21:04:48.927Z,1.26
2023-02-24T21:05:49.425Z,1.25
2023-02-24T21:06:48.938Z,1.24
2023-02-24T21:07:48.836Z,1.24
2023-02-24T21:08:48.765Z,1.25
2023-02-24T21:09:48.790Z,1.24
2023-02-24T21:10:48.836Z,1.24
2023-02-24T21:11:48.647Z,1.24
2023-02-24T21:12:48.618Z,1.22
2023-02-24T21:13:48.574Z,1.23
2023-02-24T21:14:48.593Z,1.23
2023-02-24T21:15:48.645Z,1.22
2023-02-24T21:16:48.689Z,1.22
2023-02-24T21:17:48.623Z,1.24
2023-02-24T21:18:48.628Z,1.22
2023-02-24T21:19:48.634Z,1.23
2023-02-24T21:20:48.666Z,1.24
2023-02-24T21:21:48.663Z,1.23
2023-02-24T21:22:48.675Z,1.24
2023-02-24T21:23:48.694Z,1.24
2023-02-24T21:24:48.700Z,1.23
2023-02-24T21:25:48.707Z,1.24
2023-02-24T21:26:48.769Z,1.24
2023-02-24T21:27:48.729Z,1.24
2023-02-24T21:28:48.740Z,1.23
2023-02-24T21:48:49.053Z,1.22
2023-02-24T21:49:49.061Z,1.20
2023-02-24T21:50:49.084Z,1.23
2023-02-24T21:51:49.239Z,1.23
2023-02-24T21:52:49.129Z,1.20
2023-02-24T21:53:49.130Z,1.19
2023-02-24T21:54:49.215Z,1.21
2023-02-24T21:55:49.171Z,1.23
2023-02-24T21:56:49.178Z,1.21
2023-02-24T21:57:49.187Z,1.20
2023-02-24T21:58:49.209Z,1.19
2023-02-24T21:59:49.234Z,1.22
2023-02-24T22:00:49.222Z,1.18
2023-02-24T22:01:49.316Z,1.19
2023-02-24T22:02:49.375Z,1.19
2023-02-24T22:03:49.269Z,1.18
2023-02-24T22:04:49.292Z,1.19
2023-02-24T22:05:50.259Z,1.19
2023-02-24T22:06:49.322Z,1.18
2023-02-24T22:07:49.324Z,1.18
2023-02-24T22:08:49.353Z,1.19
2023-02-24T22:09:49.370Z,1.18
2023-02-24T22:10:49.384Z,1.18
2023-02-24T22:11:49.425Z,1.21
2023-02-24T22:12:49.424Z,1.19
2023-02-24T22:13:49.438Z,1.17
2023-02-24T22:14:49.455Z,1.18
2023-02-24T22:15:49.498Z,1.19
2023-02-24T22:16:49.477Z,1.18
2023-02-24T22:17:49.497Z,1.18
2023-02-24T22:18:49.510Z,1.17
2023-02-24T22:19:49.534Z,1.17
2023-02-24T22:20:49.569Z,1.17
2023-02-24T22:21:49.573Z,1.16
2023-02-24T22:22:49.597Z,1.17
2023-02-24T22:23:49.612Z,1.16
2023-02-24T22:24:49.649Z,1.14
2023-02-24T22:25:49.645Z,1.15
2023-02-24T22:26:49.677Z,1.14
2023-02-24T22:27:49.687Z,1.18
